Time;durP1;ratioP1;P1;durP2;ratioP2;P2;SDS_P1;SDS_P2;PMS_P1;PMS_P2;Temp;Humidity;BMP_temperature;BMP_pressure;BME280_temperature;BME280_humidity;BME280_pressure;Samples;Min_cycle;Max_cycle;Signal;HPM_P1;HPM_P2
2021/04/25 00:02:08;;;;;;;2.47;2.28;;;16.30;68.00;;;;;;4973562;28;20093;-60
2021/04/25 00:04:35;;;;;;;4.63;2.67;;;16.60;69.00;;;;;;4973126;28;20041;-59
2021/04/25 00:07:00;;;;;;;2.05;1.77;;;16.10;69.10;;;;;;4973517;28;20061;-59
2021/04/25 00:09:26;;;;;;;2.28;2.08;;;16.40;83.60;;;;;;4973479;28;20031;-60
2021/04/25 00:11:52;;;;;;;4.25;1.85;;;16.10;86.40;;;;;;4973506;28;20031;-60
2021/04/25 00:14:17;;;;;;;3.50;2.03;;;16.30;79.70;;;;;;4972699;28;20411;-60
2021/04/25 00:16:43;;;;;;;2.35;1.98;;;16.20;80.00;;;;;;4956298;28;20037;-59
2021/04/25 00:19:10;;;;;;;4.20;2.40;;;;;;;;;;4973133;28;20576;-59
2021/04/25 00:21:35;;;;;;;3.97;1.95;;;16.00;51.60;;;;;;4972698;28;20027;-60
2021/04/25 00:24:01;;;;;;;2.55;2.35;;;16.10;52.20;;;;;;4955701;28;20082;-60
2021/04/25 00:26:27;;;;;;;2.75;1.90;;;16.00;52.20;;;;;;4973141;28;20031;-58
2021/04/25 00:28:52;;;;;;;3.20;2.30;;;16.00;52.20;;;;;;4973102;28;20101;-59
2021/04/25 00:31:19;;;;;;;3.67;2.20;;;16.00;52.20;;;;;;4955704;28;20126;-59
2021/04/25 00:33:45;;;;;;;3.47;1.92;;;16.00;52.30;;;;;;4973035;28;20023;-58
2021/04/25 00:36:11;;;;;;;2.92;2.08;;;16.00;52.30;;;;;;4973060;28;20106;-59
2021/04/25 00:38:36;;;;;;;2.92;2.05;;;16.00;52.30;;;;;;4973131;28;20027;-59
2021/04/25 00:41:02;;;;;;;4.68;2.45;;;16.00;52.30;;;;;;4955160;28;20022;-59
2021/04/25 00:43:28;;;;;;;4.20;2.20;;;16.00;52.30;;;;;;4972748;28;20034;-59
2021/04/25 00:45:54;;;;;;;2.40;2.20;;;16.00;52.40;;;;;;4956053;28;20027;-59
2021/04/25 00:48:21;;;;;;;3.83;2.20;;;16.00;52.50;;;;;;4972919;28;20382;-59
2021/04/25 00:50:46;;;;;;;2.67;2.30;;;15.80;52.30;;;;;;4972918;28;20085;-59
2021/04/25 00:53:12;;;;;;;3.53;2.22;;;16.00;52.40;;;;;;4972808;28;20030;-59
2021/04/25 00:55:39;;;;;;;3.20;2.40;;;16.00;52.40;;;;;;4955468;28;20022;-59
2021/04/25 00:58:04;;;;;;;3.17;2.42;;;15.90;52.40;;;;;;4955515;28;20079;-59
2021/04/25 01:00:31;;;;;;;3.10;2.30;;;15.90;52.40;;;;;;4973040;28;20498;-59
2021/04/25 01:02:57;;;;;;;4.07;2.80;;;15.90;52.40;;;;;;4972192;28;20053;-59
2021/04/25 01:05:23;;;;;;;2.33;2.10;;;15.90;52.40;;;;;;4973084;28;20023;-59
2021/04/25 01:07:49;;;;;;;2.65;2.15;;;16.10;52.40;;;;;;4972727;28;20033;-59
2021/04/25 01:10:16;;;;;;;2.60;2.40;;;15.90;52.40;;;;;;4972809;28;20031;-59
2021/04/25 01:12:43;;;;;;;4.03;2.75;;;15.90;52.40;;;;;;4972224;28;20026;-59
2021/04/25 01:15:11;;;;;;;4.20;2.50;;;15.90;52.50;;;;;;4972736;28;20023;-60
2021/04/25 01:17:42;;;;;;;3.60;2.65;;;15.90;52.60;;;;;;4972857;28;20389;-59
2021/04/25 01:20:10;;;;;;;2.38;2.10;;;15.90;52.60;;;;;;4972587;28;20538;-59
2021/04/25 01:22:36;;;;;;;3.65;2.63;;;15.90;52.60;;;;;;4954876;28;20493;-59
2021/04/25 01:25:04;;;;;;;3.28;2.00;;;15.80;52.70;;;;;;4972477;28;20509;-58
2021/04/25 01:27:30;;;;;;;2.63;2.42;;;15.80;52.70;;;;;;4958655;28;20390;-59
2021/04/25 01:29:56;;;;;;;2.63;2.20;;;15.90;74.60;;;;;;4976132;28;20067;-59
2021/04/25 01:32:21;;;;;;;2.45;2.17;;;15.90;52.70;;;;;;4975849;28;20101;-59
2021/04/25 01:34:47;;;;;;;3.40;2.55;;;15.80;52.80;;;;;;4976048;28;20504;-59
2021/04/25 01:37:13;;;;;;;4.22;2.50;;;15.80;52.80;;;;;;4975936;28;20118;-59
2021/04/25 01:39:38;;;;;;;3.30;2.30;;;15.80;52.90;;;;;;4975844;28;20122;-59
2021/04/25 01:42:04;;;;;;;3.20;2.42;;;15.80;52.90;;;;;;4975880;28;20038;-59
2021/04/25 01:44:30;;;;;;;3.47;2.70;;;15.80;52.90;;;;;;4975789;28;20042;-59
2021/04/25 01:46:55;;;;;;;3.03;2.22;;;15.80;52.90;;;;;;4976014;28;20026;-59
2021/04/25 01:49:21;;;;;;;2.95;2.33;;;15.80;52.90;;;;;;4976054;28;20378;-59
2021/04/25 01:51:47;;;;;;;8.05;2.50;;;15.80;53.00;;;;;;4958482;28;20019;-59
2021/04/25 01:54:12;;;;;;;2.65;2.30;;;15.80;53.00;;;;;;4975650;28;20470;-59
2021/04/25 01:56:39;;;;;;;4.47;2.70;;;15.80;53.00;;;;;;4975658;28;20046;-59
2021/04/25 01:59:04;;;;;;;3.22;2.40;;;15.70;53.00;;;;;;4975625;28;20034;-59
2021/04/25 02:01:30;;;;;;;2.95;2.50;;;15.70;53.00;;;;;;4975329;28;20033;-59
2021/04/25 02:03:56;;;;;;;2.75;2.47;;;15.70;53.00;;;;;;4975397;28;20405;-59
2021/04/25 02:06:22;;;;;;;5.32;2.50;;;15.70;53.10;;;;;;4975405;28;20026;-59
2021/04/25 02:08:48;;;;;;;3.42;2.53;;;15.70;53.10;;;;;;4958254;28;20518;-59
2021/04/25 02:11:14;;;;;;;3.58;2.58;;;15.70;53.00;;;;;;4975597;28;20123;-59
2021/04/25 02:13:39;;;;;;;3.85;2.70;;;15.70;53.10;;;;;;4975563;28;20420;-59
2021/04/25 02:16:05;;;;;;;2.95;2.65;;;15.50;53.10;;;;;;4975207;28;20022;-59
2021/04/25 02:18:32;;;;;;;4.75;2.58;;;15.70;53.20;;;;;;4958143;28;20069;-60
2021/04/25 02:20:58;;;;;;;2.83;2.53;;;15.80;53.30;;;;;;4975152;28;20019;-59
2021/04/25 02:23:24;;;;;;;3.92;2.70;;;15.60;53.20;;;;;;4975018;28;20038;-59
2021/04/25 02:25:50;;;;;;;3.88;2.28;;;15.70;53.20;;;;;;4975310;28;20023;-60
2021/04/25 02:28:15;;;;;;;2.70;2.50;;;15.70;53.10;;;;;;4975229;28;20054;-59
2021/04/25 02:30:42;;;;;;;2.67;2.17;;;15.70;53.20;;;;;;4974984;28;20512;-59
2021/04/25 02:33:08;;;;;;;3.00;2.53;;;15.70;53.20;;;;;;4974919;28;20027;-60
2021/04/25 02:35:34;;;;;;;2.83;2.33;;;15.70;53.30;;;;;;4975154;28;20027;-60
2021/04/25 02:38:00;;;;;;;3.15;2.60;;;15.60;53.20;;;;;;4956731;28;20019;-59
2021/04/25 02:40:29;;;;;;;4.13;2.85;;;15.70;74.40;;;;;;4974952;28;20027;-60
2021/04/25 02:42:55;;;;;;;3.47;2.60;;;15.80;53.40;;;;;;4974625;28;20394;-60
2021/04/25 02:45:23;;;;;;;2.97;2.38;;;15.60;53.30;;;;;;4974707;28;20031;-60
2021/04/25 02:47:51;;;;;;;3.58;2.90;;;15.60;53.30;;;;;;4957302;28;20747;-59
2021/04/25 02:50:19;;;;;;;2.88;2.55;;;15.60;53.30;;;;;;4974485;28;20023;-59
2021/04/25 02:52:45;;;;;;;2.90;2.13;;;15.60;53.30;;;;;;4974531;28;20082;-59
2021/04/25 02:55:11;;;;;;;2.45;2.25;;;15.60;53.30;;;;;;4957075;28;20029;-59
2021/04/25 02:57:38;;;;;;;2.50;2.30;;;15.60;53.30;;;;;;4974436;28;20106;-57
2021/04/25 03:00:07;;;;;;;2.65;2.45;;;15.60;54.00;;;;;;4974377;28;20127;-59
2021/04/25 03:02:32;;;;;;;2.60;2.40;;;15.60;53.40;;;;;;4974078;28;20046;-60
2021/04/25 03:04:58;;;;;;;3.30;2.72;;;15.20;74.20;;;;;;4974220;28;20046;-59
2021/04/25 03:07:24;;;;;;;3.13;2.60;;;15.50;53.50;;;;;;4974204;28;20027;-59
2021/04/25 03:09:49;;;;;;;2.63;2.35;;;15.50;53.40;;;;;;4974207;28;20106;-61
2021/04/25 03:12:15;;;;;;;2.70;2.28;;;15.50;53.50;;;;;;4974219;28;20422;-60
2021/04/25 03:14:40;;;;;;;3.40;2.47;;;15.50;53.50;;;;;;4956852;28;20062;-59
2021/04/25 03:17:06;;;;;;;3.25;2.83;;;15.50;53.60;;;;;;4974141;28;20078;-60
2021/04/25 03:19:31;;;;;;;3.00;2.70;;;15.50;53.50;;;;;;4974083;28;20030;-60
2021/04/25 03:21:57;;;;;;;4.18;2.47;;;15.50;53.40;;;;;;4974012;28;20030;-60
2021/04/25 03:24:23;;;;;;;2.85;2.55;;;15.70;53.60;;;;;;4973943;28;20498;-61
2021/04/25 03:26:48;;;;;;;3.35;2.65;;;15.30;53.40;;;;;;4973903;28;20034;-59
2021/04/25 03:29:14;;;;;;;6.22;2.80;;;15.50;53.50;;;;;;4974167;28;20030;-59
2021/04/25 03:31:40;;;;;;;3.10;2.80;;;15.60;53.60;;;;;;4973897;28;20034;-59
2021/04/25 03:34:05;;;;;;;3.35;2.90;;;15.50;53.50;;;;;;4973893;28;20162;-59
2021/04/25 03:36:31;;;;;;;2.90;2.60;;;15.50;53.50;;;;;;4973778;28;20121;-58
2021/04/25 03:38:57;;;;;;;5.13;2.60;;;15.50;53.50;;;;;;4973835;28;20027;-59
2021/04/25 03:41:22;;;;;;;3.28;2.90;;;15.50;53.50;;;;;;4973714;28;20158;-59
2021/04/25 03:43:48;;;;;;;2.60;2.40;;;15.50;53.60;;;;;;4973671;28;20039;-60
2021/04/25 03:46:14;;;;;;;2.83;2.58;;;15.50;53.60;;;;;;4973697;28;20033;-60
2021/04/25 03:48:39;;;;;;;3.20;2.60;;;15.50;53.50;;;;;;4973209;28;20042;-60
2021/04/25 03:51:05;;;;;;;2.50;2.30;;;15.40;53.40;;;;;;4973188;28;20527;-60
2021/04/25 03:53:31;;;;;;;2.92;2.22;;;15.50;53.60;;;;;;4973584;28;20046;-60
2021/04/25 03:55:56;;;;;;;2.55;2.30;;;15.40;53.60;;;;;;4973467;28;20114;-59
2021/04/25 03:58:22;;;;;;;3.20;2.67;;;15.40;53.50;;;;;;4973477;28;20025;-59
2021/04/25 04:00:47;;;;;;;4.30;3.05;;;15.40;53.60;;;;;;4973464;28;20030;-59
2021/04/25 04:03:13;;;;;;;3.63;2.45;;;15.30;53.60;;;;;;4973214;28;20043;-60
2021/04/25 04:05:39;;;;;;;4.80;3.03;;;15.40;53.60;;;;;;4973386;28;20086;-59
2021/04/25 04:08:04;;;;;;;2.72;2.33;;;15.40;53.70;;;;;;4973316;28;20023;-58
2021/04/25 04:10:30;;;;;;;2.80;2.33;;;15.40;53.60;;;;;;4973582;28;20023;-60
2021/04/25 04:12:55;;;;;;;4.03;2.65;;;15.40;53.70;;;;;;4973300;28;20046;-59
2021/04/25 04:15:21;;;;;;;3.03;2.55;;;15.40;74.80;;;;;;4973269;28;20022;-60
2021/04/25 04:17:47;;;;;;;2.80;2.50;;;15.40;53.60;;;;;;4973281;28;20110;-60
2021/04/25 04:20:13;;;;;;;2.67;2.45;;;15.40;53.60;;;;;;4952762;28;20102;-60
2021/04/25 04:22:38;;;;;;;3.80;2.75;;;15.40;53.50;;;;;;4973165;28;20363;-60
2021/04/25 04:25:05;;;;;;;2.67;2.30;;;15.40;53.60;;;;;;4973301;28;20151;-60
2021/04/25 04:27:30;;;;;;;3.05;2.55;;;15.40;53.50;;;;;;4973367;28;20027;-59
2021/04/25 04:29:56;;;;;;;2.75;2.40;;;15.40;53.50;;;;;;4972882;28;20053;-59
2021/04/25 04:32:22;;;;;;;3.13;2.60;;;15.40;53.60;;;;;;4953975;28;20038;-59
2021/04/25 04:34:47;;;;;;;2.80;2.35;;;15.40;53.50;;;;;;4973138;28;20025;-59
2021/04/25 04:37:13;;;;;;;2.97;2.65;;;15.30;53.50;;;;;;4973002;28;20364;-59
2021/04/25 04:39:39;;;;;;;2.80;2.35;;;15.30;74.80;;;;;;4952443;28;20035;-59
2021/04/25 04:42:05;;;;;;;3.03;2.45;;;15.30;53.40;;;;;;4936629;29;20078;-59
2021/04/25 04:44:31;;;;;;;3.63;2.78;;;15.10;53.40;;;;;;4955260;28;20031;-60
2021/04/25 04:46:56;;;;;;;4.45;2.90;;;15.30;53.60;;;;;;4972790;28;20102;-59
2021/04/25 04:49:22;;;;;;;2.80;2.38;;;;;;;;;;4973228;28;20066;-59
2021/04/25 04:51:48;;;;;;;3.38;2.60;;;15.60;76.00;;;;;;4972940;28;20023;-59
2021/04/25 04:54:14;;;;;;;4.00;2.65;;;15.30;53.60;;;;;;4972956;28;20379;-58
2021/04/25 04:56:39;;;;;;;3.35;2.80;;;15.30;53.60;;;;;;4972918;28;20033;-58
2021/04/25 04:59:05;;;;;;;2.33;2.13;;;15.30;53.70;;;;;;4952290;29;20506;-59
2021/04/25 05:01:30;;;;;;;5.32;2.60;;;15.30;53.70;;;;;;4974637;28;20026;-59
2021/04/25 05:03:56;;;;;;;3.53;2.42;;;15.30;53.70;;;;;;4976806;28;20096;-58
2021/04/25 05:06:21;;;;;;;4.00;2.50;;;15.30;53.70;;;;;;4957866;28;20089;-59
2021/04/25 05:08:47;;;;;;;2.63;2.42;;;15.30;53.80;;;;;;4976327;28;20041;-57
2021/04/25 05:11:13;;;;;;;3.92;2.42;;;15.20;53.80;;;;;;4976457;28;20027;-59
2021/04/25 05:13:39;;;;;;;3.08;2.60;;;15.20;53.80;;;;;;4976396;28;20027;-59
2021/04/25 05:16:05;;;;;;;3.03;2.38;;;15.00;53.70;;;;;;4976196;28;20046;-59
2021/04/25 05:18:31;;;;;;;2.70;2.50;;;15.20;53.80;;;;;;4976000;28;20363;-58
2021/04/25 05:20:56;;;;;;;3.75;2.60;;;15.20;53.90;;;;;;4976355;28;20109;-59
2021/04/25 05:23:22;;;;;;;3.03;2.25;;;15.30;53.90;;;;;;4975981;28;20069;-59
2021/04/25 05:25:47;;;;;;;2.75;2.13;;;15.20;53.80;;;;;;4976293;28;20042;-58
2021/04/25 05:28:13;;;;;;;3.70;2.50;;;15.20;53.80;;;;;;4976214;28;20025;-59
2021/04/25 05:30:39;;;;;;;2.95;2.65;;;15.20;53.90;;;;;;4976163;28;20418;-59
2021/04/25 05:33:04;;;;;;;3.08;2.60;;;15.00;53.70;;;;;;4975941;28;20553;-58
2021/04/25 05:35:30;;;;;;;2.35;1.90;;;15.20;75.20;;;;;;4958366;28;20034;-59
2021/04/25 05:37:56;;;;;;;3.13;2.30;;;15.10;75.30;;;;;;4976019;28;20077;-59
2021/04/25 05:40:21;;;;;;;3.22;2.83;;;15.20;53.90;;;;;;4975952;28;20549;-59
2021/04/25 05:42:47;;;;;;;3.42;2.55;;;15.20;53.80;;;;;;4975581;28;20022;-59
2021/04/25 05:45:22;;;;;;;3.55;2.47;;;15.20;53.90;;;;;;4955788;28;20121;-59
2021/04/25 05:47:55;;;;;;;2.70;2.17;;;15.20;53.90;;;;;;4975899;28;20022;-59
2021/04/25 05:50:23;;;;;;;3.75;2.40;;;15.20;53.80;;;;;;4975992;28;20434;-59
2021/04/25 05:52:49;;;;;;;2.28;2.08;;;15.20;53.80;;;;;;4954867;29;20024;-59
2021/04/25 05:55:16;;;;;;;3.30;2.40;;;15.20;53.70;;;;;;4973477;28;20101;-58
2021/04/25 05:57:42;;;;;;;2.97;2.40;;;;;;;;;;4975712;28;20077;-59
2021/04/25 06:00:10;;;;;;;2.50;2.30;;;15.00;75.30;;;;;;4955038;29;20050;-59
2021/04/25 06:02:36;;;;;;;2.60;2.20;;;15.20;53.70;;;;;;4967455;28;20059;-58
2021/04/25 06:05:03;;;;;;;3.17;2.13;;;15.20;53.70;;;;;;4954912;29;20131;-57
2021/04/25 06:07:28;;;;;;;2.95;2.20;;;15.20;53.80;;;;;;4974739;28;20031;-58
2021/04/25 06:09:54;;;;;;;3.45;2.50;;;15.20;53.80;;;;;;4975476;28;20053;-60
2021/04/25 06:12:19;;;;;;;2.65;2.42;;;14.90;53.60;;;;;;4974087;28;20065;-59
2021/04/25 06:14:45;;;;;;;2.63;2.03;;;15.20;53.80;;;;;;4975461;28;20029;-59
2021/04/25 06:17:11;;;;;;;3.22;2.58;;;15.10;53.70;;;;;;4975308;28;20023;-59
2021/04/25 06:19:51;;;;;;;2.45;1.70;;;15.10;53.70;;;;;;4954699;29;20038;-59
2021/04/25 06:22:17;;;;;;;3.40;2.53;;;15.20;54.20;;;;;;4972800;28;20041;-59
2021/04/25 06:24:43;;;;;;;3.38;2.55;;;15.20;53.60;;;;;;4975023;28;20038;-59
2021/04/25 06:27:09;;;;;;;3.60;2.58;;;14.70;74.90;;;;;;4975149;28;20038;-59
2021/04/25 06:29:35;;;;;;;2.20;1.90;;;15.10;53.60;;;;;;4954486;29;20095;-58
2021/04/25 06:32:02;;;;;;;2.20;1.90;;;15.10;53.50;;;;;;4970357;28;20101;-59
2021/04/25 06:34:28;;;;;;;3.63;2.08;;;15.20;53.50;;;;;;4975076;28;20027;-58
2021/04/25 06:36:54;;;;;;;3.67;2.40;;;15.10;53.40;;;;;;4975201;28;20022;-59
2021/04/25 06:39:19;;;;;;;3.17;2.28;;;15.10;53.30;;;;;;4974802;28;20037;-57
2021/04/25 06:41:45;;;;;;;3.38;1.75;;;15.10;53.40;;;;;;4974583;28;20386;-57
2021/04/25 06:44:10;;;;;;;2.45;2.25;;;15.20;53.30;;;;;;4974665;28;20085;-59
2021/04/25 06:46:36;;;;;;;3.97;2.25;;;15.10;53.40;;;;;;4974747;28;20023;-58
2021/04/25 06:49:03;;;;;;;2.10;1.90;;;15.10;53.30;;;;;;4974986;28;20022;-58
2021/04/25 06:51:29;;;;;;;2.63;2.05;;;15.10;74.90;;;;;;4974486;28;20030;-59
2021/04/25 06:53:55;;;;;;;2.22;1.83;;;15.10;53.50;;;;;;4974700;28;20031;-58
2021/04/25 06:56:20;;;;;;;2.78;2.05;;;15.10;53.40;;;;;;4974622;28;20023;-57
2021/04/25 06:58:46;;;;;;;3.83;2.00;;;15.10;53.40;;;;;;4974505;28;20109;-58
2021/04/25 07:01:12;;;;;;;2.78;2.05;;;15.10;53.20;;;;;;4954334;28;20035;-57
2021/04/25 07:03:39;;;;;;;2.28;1.77;;;15.10;53.30;;;;;;4974533;28;20051;-58
2021/04/25 07:06:05;;;;;;;2.13;1.83;;;15.40;53.50;;;;;;4974405;28;20034;-57
2021/04/25 07:08:31;;;;;;;2.38;1.83;;;15.10;53.30;;;;;;4956707;28;20029;-57
2021/04/25 07:10:56;;;;;;;3.00;1.77;;;15.10;53.30;;;;;;4974217;28;20481;-57
2021/04/25 07:13:22;;;;;;;3.47;2.10;;;15.10;53.30;;;;;;4974204;28;20054;-57
2021/04/25 07:15:48;;;;;;;2.47;1.98;;;15.10;53.40;;;;;;4974171;28;20034;-56
2021/04/25 07:18:14;;;;;;;2.58;1.95;;;;;;;;;;4954297;28;20088;-58
2021/04/25 07:20:40;;;;;;;2.65;1.75;;;15.10;52.90;;;;;;4974184;28;20027;-57
2021/04/25 07:23:06;;;;;;;4.18;1.90;;;15.10;53.50;;;;;;4973807;28;20030;-57
2021/04/25 07:25:32;;;;;;;3.30;1.83;;;15.00;74.70;;;;;;4973963;28;20023;-57
2021/04/25 07:27:58;;;;;;;5.78;2.60;;;15.10;53.50;;;;;;4973953;28;20026;-58
2021/04/25 07:30:24;;;;;;;2.55;2.00;;;15.10;53.30;;;;;;4973970;28;20027;-58
2021/04/25 07:32:51;;;;;;;3.28;1.65;;;15.10;53.30;;;;;;4953300;29;20027;-58
2021/04/25 07:35:17;;;;;;;2.10;1.55;;;15.10;53.20;;;;;;4971638;28;20086;-59
2021/04/25 07:37:46;;;;;;;3.22;2.05;;;15.30;53.30;;;;;;4973833;28;20430;-60
2021/04/25 07:40:13;;;;;;;4.90;2.00;;;15.10;54.30;;;;;;4953904;28;20035;-61
2021/04/25 07:42:39;;;;;;;4.28;1.70;;;15.20;54.90;;;;;;4973681;28;20039;-58
2021/04/25 07:45:07;;;;;;;6.90;1.80;;;15.30;54.10;;;;;;4973568;28;20039;-58
2021/04/25 07:47:32;;;;;;;3.35;1.50;;;15.20;53.70;;;;;;4956331;28;20022;-58
2021/04/25 07:49:58;;;;;;;5.38;1.80;;;15.20;53.70;;;;;;4973548;28;20086;-60
2021/04/25 07:52:24;;;;;;;5.03;1.83;;;15.20;53.70;;;;;;4954920;28;20475;-59
2021/04/25 07:54:50;;;;;;;5.10;2.20;;;15.20;53.80;;;;;;4973459;28;20441;-59
2021/04/25 07:57:15;;;;;;;6.60;1.90;;;15.20;53.60;;;;;;4973453;28;20039;-60
2021/04/25 07:59:41;;;;;;;9.23;1.77;;;15.20;53.50;;;;;;4953110;29;20031;-59
2021/04/25 08:02:07;;;;;;;2.55;2.10;;;15.20;53.70;;;;;;4952605;29;20042;-58
2021/04/25 08:04:33;;;;;;;4.43;1.60;;;15.30;75.40;;;;;;4972958;28;20035;-59
2021/04/25 08:06:58;;;;;;;4.80;2.03;;;15.20;54.20;;;;;;4973585;28;20030;-59
2021/04/25 08:09:24;;;;;;;3.95;1.90;;;15.00;54.20;;;;;;4973183;28;20019;-59
2021/04/25 08:11:50;;;;;;;3.38;1.42;;;15.30;54.40;;;;;;4952781;29;20475;-59
2021/04/25 08:14:15;;;;;;;6.03;1.70;;;15.50;54.10;;;;;;4970940;28;20023;-59
2021/04/25 08:16:41;;;;;;;1.83;1.40;;;15.70;53.80;;;;;;4973205;28;20062;-59
2021/04/25 08:19:08;;;;;;;5.32;1.42;;;16.20;73.80;;;;;;4973152;28;20031;-59
2021/04/25 08:21:34;;;;;;;1.92;1.35;;;16.20;52.70;;;;;;4965090;28;20549;-59
2021/04/25 08:24:00;;;;;;;2.00;1.10;;;16.50;52.30;;;;;;4973063;28;20169;-59
2021/04/25 08:26:26;;;;;;;1.58;1.08;;;16.60;52.00;;;;;;4973323;28;20026;-59
2021/04/25 08:28:52;;;;;;;2.75;1.30;;;16.70;51.90;;;;;;4973365;28;20027;-59
2021/04/25 08:31:18;;;;;;;2.40;1.33;;;16.70;51.90;;;;;;4953754;28;20531;-59
2021/04/25 08:33:43;;;;;;;3.88;1.85;;;16.60;51.90;;;;;;4973003;28;20041;-59
2021/04/25 08:36:09;;;;;;;4.47;1.10;;;16.70;52.00;;;;;;4974786;28;20106;-59
2021/04/25 08:38:35;;;;;;;1.85;0.90;;;16.80;51.80;;;;;;4977264;28;20089;-59
2021/04/25 08:41:03;;;;;;;2.40;1.00;;;16.80;51.70;;;;;;4976961;28;20030;-59
2021/04/25 08:43:29;;;;;;;4.18;1.40;;;16.80;51.80;;;;;;4976946;28;20061;-60
2021/04/25 08:45:57;;;;;;;2.33;1.15;;;16.80;51.80;;;;;;4977259;28;20393;-59
2021/04/25 08:48:25;;;;;;;3.80;1.00;;;16.90;52.10;;;;;;4976760;28;20019;-59
2021/04/25 08:50:51;;;;;;;5.30;1.52;;;16.40;52.00;;;;;;4956332;29;20027;-59
2021/04/25 08:53:19;;;;;;;4.10;1.52;;;16.50;52.20;;;;;;4974717;28;20042;-59
2021/04/25 08:55:45;;;;;;;5.38;0.93;;;16.50;52.20;;;;;;4956373;29;20055;-60
2021/04/25 08:58:11;;;;;;;4.32;1.48;;;16.40;52.20;;;;;;4973820;28;20039;-59
2021/04/25 09:00:36;;;;;;;3.28;1.33;;;16.40;52.10;;;;;;4977129;28;20019;-59
2021/04/25 09:03:02;;;;;;;2.97;1.23;;;16.50;73.10;;;;;;4976647;28;20054;-59
2021/04/25 09:05:28;;;;;;;2.80;1.15;;;16.50;52.00;;;;;;4976820;28;20081;-56
2021/04/25 09:08:00;;;;;;;2.70;1.33;;;16.60;52.00;;;;;;4976690;28;20478;-58
2021/04/25 09:10:46;;;;;;;2.58;1.10;;;16.60;51.60;;;;;;4958447;28;20023;-57
2021/04/25 09:13:20;;;;;;;2.85;1.08;;;16.60;51.80;;;;;;4956461;28;20024;-58
2021/04/25 09:15:46;;;;;;;1.83;1.10;;;16.70;72.80;;;;;;4976675;28;20029;-58
2021/04/25 09:18:12;;;;;;;2.50;1.20;;;16.70;51.90;;;;;;4976535;28;20034;-56
2021/04/25 09:20:44;;;;;;;2.95;1.10;;;16.70;51.80;;;;;;4976607;28;20023;-56
2021/04/25 09:23:12;;;;;;;4.55;1.13;;;16.80;51.90;;;;;;4976820;28;20058;-56
2021/04/25 09:25:38;;;;;;;3.70;1.70;;;16.80;52.20;;;;;;4976318;28;20034;-58
2021/04/25 09:28:16;;;;;;;2.10;1.15;;;16.80;52.20;;;;;;4955787;29;20027;-57
2021/04/25 09:31:03;;;;;;;4.30;1.33;;;16.80;52.10;;;;;;4969518;28;20023;-58
2021/04/25 09:33:47;;;;;;;3.80;1.25;;;16.80;52.10;;;;;;4976078;28;20039;-55
2021/04/25 09:36:14;;;;;;;2.45;0.73;;;16.90;52.30;;;;;;4976362;28;20117;-55
2021/04/25 09:38:40;;;;;;;6.80;0.90;;;16.90;52.30;;;;;;4955272;28;20171;-56
2021/04/25 09:41:05;;;;;;;3.22;0.93;;;16.70;52.10;;;;;;4972167;28;20105;-58
2021/04/25 09:43:39;;;;;;;2.40;1.30;;;16.90;52.20;;;;;;4976037;28;20466;-55
2021/04/25 09:46:05;;;;;;;1.98;1.10;;;16.90;52.20;;;;;;4975877;28;20060;-57
2021/04/25 09:48:33;;;;;;;4.97;1.10;;;17.00;52.20;;;;;;4975648;28;20022;-56
2021/04/25 09:51:09;;;;;;;2.75;1.00;;;17.00;52.20;;;;;;4975812;28;20031;-58
2021/04/25 09:53:37;;;;;;;2.40;1.17;;;17.00;52.30;;;;;;4955193;29;20446;-58
2021/04/25 09:56:03;;;;;;;6.78;1.00;;;17.00;52.30;;;;;;4955084;29;20074;-57
2021/04/25 09:58:29;;;;;;;5.03;1.02;;;17.00;52.40;;;;;;4975056;28;20069;-57
2021/04/25 10:00:55;;;;;;;3.80;0.98;;;17.00;52.40;;;;;;4955138;29;20058;-58
2021/04/25 10:03:22;;;;;;;2.53;1.10;;;16.90;52.10;;;;;;4956325;28;20095;-57
2021/04/25 10:06:16;;;;;;;2.67;1.25;;;16.90;52.10;;;;;;4975551;28;20026;-57
2021/04/25 10:08:44;;;;;;;2.65;1.08;;;17.50;52.20;;;;;;4956888;28;20101;-57
2021/04/25 10:11:09;;;;;;;2.10;0.88;;;17.10;52.00;;;;;;4975517;28;20117;-55
2021/04/25 10:13:44;;;;;;;3.13;1.13;;;17.10;52.10;;;;;;4975419;28;20125;-56
2021/04/25 10:16:11;;;;;;;5.15;1.27;;;17.10;52.00;;;;;;4975383;28;20109;-57
2021/04/25 10:18:37;;;;;;;2.67;0.98;;;17.20;73.60;;;;;;4954743;29;20023;-57
2021/04/25 10:21:02;;;;;;;2.95;0.82;;;17.20;52.00;;;;;;4971084;28;20023;-56
2021/04/25 10:23:28;;;;;;;3.90;1.00;;;17.20;52.00;;;;;;4975317;28;20049;-55
2021/04/25 10:25:53;;;;;;;1.52;0.75;;;17.30;52.00;;;;;;4954653;29;20031;-58
2021/04/25 10:28:43;;;;;;;2.45;1.02;;;17.30;51.60;;;;;;4939977;28;20051;-55
2021/04/25 10:31:13;;;;;;;2.33;0.60;;;17.30;51.70;;;;;;4975067;28;20027;-54
2021/04/25 10:34:02;;;;;;;3.35;0.95;;;17.30;51.80;;;;;;4975046;28;20081;-56
2021/04/25 10:36:50;;;;;;;2.05;0.80;;;17.40;52.00;;;;;;4974932;28;20026;-55
2021/04/25 10:39:41;;;;;;;3.08;0.90;;;17.30;51.90;;;;;;4975014;28;20033;-55
2021/04/25 10:42:16;;;;;;;2.85;0.80;;;17.30;51.60;;;;;;4974887;28;20023;-57
2021/04/25 10:45:16;;;;;;;1.80;0.85;;;17.40;73.80;;;;;;4974969;28;20041;-55
2021/04/25 10:47:43;;;;;;;1.77;0.73;;;17.30;51.50;;;;;;4974989;28;20042;-55
2021/04/25 10:50:17;;;;;;;4.50;0.80;;;17.30;51.40;;;;;;4974633;28;20034;-55
2021/04/25 10:52:45;;;;;;;2.67;1.00;;;17.10;51.10;;;;;;4974970;28;20106;-55
2021/04/25 10:55:21;;;;;;;2.45;0.90;;;17.20;51.20;;;;;;4974718;28;20029;-54
2021/04/25 10:57:53;;;;;;;4.88;0.98;;;17.30;73.40;;;;;;4953908;28;20034;-57
2021/04/25 11:00:30;;;;;;;3.45;0.90;;;17.40;51.30;;;;;;4972159;28;20069;-57
2021/04/25 11:03:03;;;;;;;3.78;0.98;;;17.70;51.40;;;;;;4953746;29;20051;-56
2021/04/25 11:05:52;;;;;;;4.18;0.73;;;17.40;51.50;;;;;;4956490;28;20125;-57
2021/04/25 11:08:29;;;;;;;2.40;0.70;;;17.40;50.40;;;;;;4974376;28;20045;-56
2021/04/25 11:11:02;;;;;;;1.52;0.68;;;16.60;50.60;;;;;;4974624;28;20026;-55
2021/04/25 11:13:45;;;;;;;2.35;0.88;;;17.70;74.50;;;;;;4974293;28;20050;-56
2021/04/25 11:16:13;;;;;;;4.28;0.85;;;17.10;76.30;;;;;;4974231;28;20066;-57
2021/04/25 11:18:54;;;;;;;2.53;0.80;;;17.30;50.00;;;;;;4953611;29;20031;-56
2021/04/25 11:21:32;;;;;;;3.95;1.15;;;17.20;75.90;;;;;;4954920;28;20050;-57
2021/04/25 11:24:01;;;;;;;2.20;1.00;;;17.30;50.40;;;;;;4974035;28;20027;-57
2021/04/25 11:26:42;;;;;;;1.73;0.70;;;17.30;49.90;;;;;;4973952;28;20077;-56
2021/04/25 11:29:20;;;;;;;1.10;0.90;;;17.20;50.40;;;;;;4974070;28;20019;-57
2021/04/25 11:31:46;;;;;;;4.70;1.15;;;17.20;74.20;;;;;;4973947;28;20030;-55
2021/04/25 11:34:27;;;;;;;2.65;0.77;;;17.20;50.30;;;;;;4953279;28;20037;-56
2021/04/25 11:36:57;;;;;;;3.00;0.77;;;16.70;75.00;;;;;;4953245;29;20045;-57
2021/04/25 11:39:33;;;;;;;1.65;0.88;;;17.00;74.90;;;;;;4972222;28;20481;-56
2021/04/25 11:42:01;;;;;;;1.65;0.63;;;17.00;74.90;;;;;;4973402;28;20049;-56
2021/04/25 11:44:31;;;;;;;1.13;0.68;;;16.80;74.60;;;;;;4955355;28;20482;-55
2021/04/25 11:47:04;;;;;;;1.65;0.98;;;17.00;74.80;;;;;;4973909;28;20026;-56
2021/04/25 11:49:34;;;;;;;3.20;0.77;;;17.00;50.10;;;;;;4973385;28;20027;-56
2021/04/25 11:52:08;;;;;;;1.90;0.77;;;17.00;50.50;;;;;;4973522;28;20030;-55
2021/04/25 11:54:34;;;;;;;2.63;1.00;;;17.00;50.40;;;;;;4953093;29;20023;-57
2021/04/25 11:57:12;;;;;;;3.22;1.02;;;17.00;50.40;;;;;;4969253;28;20029;-56
2021/04/25 11:59:57;;;;;;;1.40;0.80;;;17.00;50.40;;;;;;4957003;28;20031;-56
2021/04/25 12:02:24;;;;;;;2.15;0.70;;;17.00;50.40;;;;;;4973610;28;20046;-54
2021/04/25 12:04:58;;;;;;;2.88;0.85;;;17.00;50.20;;;;;;4974021;28;20034;-56
2021/04/25 12:07:45;;;;;;;2.72;0.75;;;17.00;50.20;;;;;;4974120;28;20430;-56
2021/04/25 12:10:26;;;;;;;2.13;0.70;;;17.00;50.20;;;;;;4973207;28;20038;-56
2021/04/25 12:13:11;;;;;;;3.35;0.50;;;16.90;50.30;;;;;;4973679;28;20030;-55
2021/04/25 12:15:43;;;;;;;1.10;0.65;;;16.90;74.00;;;;;;4957133;28;20023;-58
2021/04/25 12:18:09;;;;;;;4.93;0.80;;;16.90;50.20;;;;;;4974003;28;20029;-57
2021/04/25 12:20:43;;;;;;;1.35;0.60;;;16.50;50.10;;;;;;4974248;28;20554;-58
2021/04/25 12:23:14;;;;;;;1.80;1.20;;;17.00;50.90;;;;;;4973828;28;20027;-57
2021/04/25 12:25:40;;;;;;;1.75;0.80;;;17.00;51.00;;;;;;4973881;28;20058;-57
2021/04/25 12:28:06;;;;;;;1.92;1.02;;;17.00;51.00;;;;;;4953413;29;20498;-56
2021/04/25 12:30:32;;;;;;;3.08;0.80;;;17.10;74.00;;;;;;4973150;28;20035;-56
2021/04/25 12:33:11;;;;;;;1.95;0.57;;;17.10;50.80;;;;;;4973632;28;20029;-55
2021/04/25 12:35:42;;;;;;;2.65;0.90;;;17.20;50.60;;;;;;4974143;28;20038;-56
2021/04/25 12:38:31;;;;;;;2.10;0.70;;;17.20;50.50;;;;;;4953277;28;20020;-55
2021/04/25 12:41:02;;;;;;;1.83;0.50;;;17.40;50.60;;;;;;4968659;28;20035;-56
2021/04/25 12:43:30;;;;;;;1.80;0.80;;;17.30;50.40;;;;;;4973527;28;20031;-56
2021/04/25 12:45:57;;;;;;;3.10;1.00;;;17.30;73.20;;;;;;4973955;28;20023;-56
2021/04/25 12:48:33;;;;;;;2.40;0.60;;;17.40;50.30;;;;;;4973553;28;20015;-56
2021/04/25 12:51:21;;;;;;;1.27;0.55;;;17.50;50.40;;;;;;4953080;29;20208;-56
2021/04/25 12:54:16;;;;;;;1.42;0.70;;;17.50;50.60;;;;;;4967510;28;20058;-56